Aurora — ZGGJ8 — position and weather

sailwx.info

Track history (hours):
 
Tides and Currents Weather Stations Pressure Air Temp Water Temp Dewpoint Dewpoint Depression Visibility Wind Speed Wind Dir Waves Ship Positions

Aurora

Last reported at 2018-Aug-20 16:01 UTC. Time now 2018-Aug-20 16:47 UTC.
Position N 41°22' E 002°11'.

Length 74 m; draft 3.7 m.

Type: Pleasure craft. MMSI: 319112700.

Date/timePositionNaut miles runAvg speedWind from/ knotsBaromVisibWave heightAir tempDewpointWater temp
2018-Aug-20 16:01N 41°22' E 002°11'0 0.0
2018-Aug-20 15:58N 41°22' E 002°11'0 0.0
2018-Aug-20 15:28N 41°22' E 002°11'0 0.2
2018-Aug-20 15:03N 41°22' E 002°11'0 1.4
2018-Aug-20 15:00N 41°22' E 002°11'3 6.6
2018-Aug-20 14:31N 41°20' E 002°15'815.2
2018-Aug-20 14:00N 41°20' E 002°25'815.6
2018-Aug-20 13:31N 41°20' E 002°35'715.8
2018-Aug-20 13:03N 41°20' E 002°45'115.9
2018-Aug-20 13:00N 41°20' E 002°46'815.5
2018-Aug-20 12:31N 41°20' E 002°56'3 6.3
2018-Aug-20 12:03N 41°20' E 002°60'0 6.0
2018-Aug-20 12:00N 41°20' E 003°00'714.9
2018-Aug-20 11:30N 41°20' E 003°10'714.9
2018-Aug-20 11:03N 41°19' E 003°19'115.1
2018-Aug-20 11:00N 41°19' E 003°20'13614.0
2018-Aug-20 01:20N 41°19' E 006°21'514.2
2018-Aug-20 01:00N 41°20' E 006°27'7314.5
2018-Aug-19 19:57N 41°19' E 008°05'614.5
2018-Aug-19 19:31N 41°19' E 008°13'714.4
2018-Aug-19 19:00N 41°19' E 008°23'814.5
2018-Aug-19 18:28N 41°19' E 008°33'612.9
2018-Aug-19 18:00N 41°19' E 008°41'5 9.1
2018-Aug-19 17:27N 41°19' E 008°48'  
2018-Aug-13 18:59N 41°04' E 009°32'0 0.0
2018-Aug-13 17:34N 41°05' E 009°32'0 0.1
2018-Aug-13 17:30N 41°05' E 009°32'0 0.0
2018-Aug-13 17:00N 41°05' E 009°32'0 0.0
2018-Aug-13 16:30N 41°05' E 009°32'0 0.0
2018-Aug-13 15:52N 41°05' E 009°32'0 0.0
2018-Aug-13 15:30N 41°05' E 009°32'0 0.0
2018-Aug-13 14:58N 41°05' E 009°32'0 0.0
2018-Aug-13 14:30N 41°05' E 009°32'0 0.0
2018-Aug-13 13:53N 41°05' E 009°32'0 0.0
2018-Aug-13 12:13N 41°05' E 009°32'0 0.0
2018-Aug-13 11:31N 41°05' E 009°32'0 0.1
2018-Aug-13 11:30N 41°05' E 009°32'0 0.0
2018-Aug-13 11:00N 41°04' E 009°32'3 0.1
2018-Aug-11 10:16N 41°08' E 009°33'  
Track history (hours):
 
Tides and Currents Weather Stations Pressure Air Temp Water Temp Dewpoint Dewpoint Depression Visibility Wind Speed Wind Dir Waves Ship Positions

Aurora

Last reported at 2018-Aug-20 16:01 UTC. Time now 2018-Aug-20 16:47 UTC.
Position N 41°22' E 002°11'.

Length 74 m; draft 3.7 m.

Type: Pleasure craft. MMSI: 319112700.

Date/timePositionNaut miles runAvg speedWind from/ knotsBaromVisibWave heightAir tempDewpointWater temp
2018-Aug-20 16:01N 41°22' E 002°11'0 0.0
2018-Aug-20 15:58N 41°22' E 002°11'0 0.0
2018-Aug-20 15:28N 41°22' E 002°11'0 0.2
2018-Aug-20 15:03N 41°22' E 002°11'0 1.4
2018-Aug-20 15:00N 41°22' E 002°11'3 6.6
2018-Aug-20 14:31N 41°20' E 002°15'815.2
2018-Aug-20 14:00N 41°20' E 002°25'815.6
2018-Aug-20 13:31N 41°20' E 002°35'715.8
2018-Aug-20 13:03N 41°20' E 002°45'115.9
2018-Aug-20 13:00N 41°20' E 002°46'815.5
2018-Aug-20 12:31N 41°20' E 002°56'3 6.3
2018-Aug-20 12:03N 41°20' E 002°60'0 6.0
2018-Aug-20 12:00N 41°20' E 003°00'714.9
2018-Aug-20 11:30N 41°20' E 003°10'714.9
2018-Aug-20 11:03N 41°19' E 003°19'115.1
2018-Aug-20 11:00N 41°19' E 003°20'13614.0
2018-Aug-20 01:20N 41°19' E 006°21'514.2
2018-Aug-20 01:00N 41°20' E 006°27'7314.5
2018-Aug-19 19:57N 41°19' E 008°05'614.5
2018-Aug-19 19:31N 41°19' E 008°13'714.4
2018-Aug-19 19:00N 41°19' E 008°23'814.5
2018-Aug-19 18:28N 41°19' E 008°33'612.9
2018-Aug-19 18:00N 41°19' E 008°41'5 9.1
2018-Aug-19 17:27N 41°19' E 008°48'  
2018-Aug-13 18:59N 41°04' E 009°32'0 0.0
2018-Aug-13 17:34N 41°05' E 009°32'0 0.1
2018-Aug-13 17:30N 41°05' E 009°32'0 0.0
2018-Aug-13 17:00N 41°05' E 009°32'0 0.0
2018-Aug-13 16:30N 41°05' E 009°32'0 0.0
2018-Aug-13 15:52N 41°05' E 009°32'0 0.0
2018-Aug-13 15:30N 41°05' E 009°32'0 0.0
2018-Aug-13 14:58N 41°05' E 009°32'0 0.0
2018-Aug-13 14:30N 41°05' E 009°32'0 0.0
2018-Aug-13 13:53N 41°05' E 009°32'0 0.0
2018-Aug-13 12:13N 41°05' E 009°32'0 0.0
2018-Aug-13 11:31N 41°05' E 009°32'0 0.1
2018-Aug-13 11:30N 41°05' E 009°32'0 0.0
2018-Aug-13 11:00N 41°04' E 009°32'3 0.1
2018-Aug-11 10:16N 41°08' E 009°33'  

Dump ship's entire track history